createdAt,value
2018-07-31T00:01:06.733Z,63.50
2018-07-31T00:03:46.592Z,63.30
2018-07-31T00:06:28.383Z,63.60
2018-07-31T00:09:08.527Z,64.10
2018-07-31T00:11:46.271Z,64.20
2018-07-31T00:14:21.006Z,64.50
2018-07-31T00:16:56.085Z,64.70
2018-07-31T00:19:38.021Z,64.90
2018-07-31T00:22:12.728Z,64.80
2018-07-31T00:24:47.490Z,65.20
2018-07-31T00:27:23.201Z,65.00
2018-07-31T00:29:57.934Z,64.30
2018-07-31T00:32:33.670Z,64.10
2018-07-31T00:35:08.400Z,63.90
2018-07-31T00:37:44.126Z,63.90
2018-07-31T00:42:54.089Z,64.30
2018-07-31T00:48:03.077Z,64.90
2018-07-31T00:50:37.793Z,65.10
2018-07-31T00:53:12.530Z,65.30
2018-07-31T00:55:47.241Z,65.40
2018-07-31T00:58:21.959Z,65.20
2018-07-31T01:00:56.702Z,65.30
2018-07-31T01:03:31.409Z,66.60
2018-07-31T01:06:06.197Z,66.40
2018-07-31T01:08:42.286Z,66.60
2018-07-31T01:11:16.995Z,66.50
2018-07-31T01:16:26.065Z,66.80
2018-07-31T01:19:00.744Z,66.50
2018-07-31T01:21:36.666Z,66.20
2018-07-31T01:24:11.670Z,66.10
2018-07-31T01:26:46.392Z,66.10
2018-07-31T01:29:21.119Z,66.40
2018-07-31T01:31:56.885Z,66.20
2018-07-31T01:34:31.595Z,66.40
2018-07-31T01:37:07.341Z,66.50
2018-07-31T01:39:42.072Z,66.60
2018-07-31T01:42:16.815Z,66.60
2018-07-31T01:44:51.523Z,66.70
2018-07-31T01:47:27.301Z,67.00
2018-07-31T01:50:01.997Z,67.10
2018-07-31T01:52:36.757Z,67.50
2018-07-31T01:55:11.444Z,67.90
2018-07-31T01:57:46.179Z,67.80
2018-07-31T02:00:20.868Z,68.20
2018-07-31T02:02:55.642Z,68.40
2018-07-31T02:05:36.761Z,68.40
2018-07-31T02:13:23.299Z,68.60
2018-07-31T02:15:57.989Z,68.50
2018-07-31T02:18:33.686Z,68.40
2018-07-31T02:23:43.655Z,68.20
2018-07-31T02:31:27.896Z,68.40
2018-07-31T02:34:02.718Z,68.40
2018-07-31T02:36:37.425Z,68.60
2018-07-31T02:39:12.528Z,69.00
2018-07-31T02:41:47.241Z,69.30
2018-07-31T02:46:56.264Z,70.10
2018-07-31T02:52:05.357Z,69.70
2018-07-31T02:54:41.143Z,69.70
2018-07-31T02:57:16.211Z,69.90
2018-07-31T03:05:01.420Z,69.90
2018-07-31T03:07:36.153Z,70.60
2018-07-31T03:10:12.596Z,71.00
2018-07-31T03:12:47.281Z,72.20
2018-07-31T03:15:22.020Z,72.10
2018-07-31T03:18:04.605Z,72.40
2018-07-31T03:20:40.326Z,72.70
2018-07-31T03:23:15.087Z,73.20
2018-07-31T03:25:50.764Z,73.30
2018-07-31T03:28:25.466Z,73.30
2018-07-31T03:31:00.193Z,73.40
2018-07-31T03:33:34.908Z,73.50
2018-07-31T03:36:10.699Z,73.40
2018-07-31T03:38:46.394Z,73.60
2018-07-31T03:41:22.155Z,74.00
2018-07-31T03:43:56.873Z,74.00
2018-07-31T03:46:32.608Z,74.30
2018-07-31T03:49:08.384Z,74.00
2018-07-31T03:51:44.139Z,74.90
2018-07-31T03:54:19.652Z,74.90
2018-07-31T03:56:54.419Z,75.10
2018-07-31T03:59:29.147Z,74.80
2018-07-31T04:02:03.941Z,74.80
2018-07-31T04:04:38.689Z,75.30
2018-07-31T04:07:14.558Z,75.20
2018-07-31T04:09:49.226Z,75.10
2018-07-31T04:14:58.196Z,75.90
2018-07-31T04:17:34.022Z,75.80
2018-07-31T04:20:08.769Z,76.10
2018-07-31T04:22:43.522Z,76.40
2018-07-31T04:25:18.216Z,76.10
2018-07-31T04:27:53.075Z,75.70
2018-07-31T04:30:27.767Z,75.10
2018-07-31T04:33:02.509Z,74.80
2018-07-31T04:35:37.194Z,75.10
2018-07-31T04:40:47.216Z,74.80
2018-07-31T04:43:21.960Z,74.60
2018-07-31T04:45:56.681Z,73.00
2018-07-31T04:48:31.353Z,70.50
2018-07-31T04:51:07.072Z,69.10
2018-07-31T04:53:42.842Z,67.60
2018-07-31T04:58:51.778Z,64.60
2018-07-31T05:01:26.567Z,65.10
2018-07-31T05:04:01.308Z,63.90
2018-07-31T05:06:36.032Z,62.90
2018-07-31T05:09:12.107Z,62.80
2018-07-31T05:14:20.501Z,62.30
2018-07-31T05:16:55.980Z,62.40
2018-07-31T05:19:30.417Z,63.80
2018-07-31T05:22:04.912Z,64.30
2018-07-31T05:24:39.331Z,65.00
2018-07-31T05:27:13.811Z,66.20
2018-07-31T05:29:49.315Z,66.00
2018-07-31T05:32:23.794Z,65.20
2018-07-31T05:34:58.293Z,65.80
2018-07-31T05:37:32.711Z,63.70
2018-07-31T05:40:08.356Z,61.70
2018-07-31T05:42:42.765Z,60.30
2018-07-31T05:45:17.215Z,59.80
2018-07-31T05:47:51.927Z,58.50
2018-07-31T05:50:27.430Z,58.60
2018-07-31T05:53:02.503Z,56.30
2018-07-31T05:55:36.984Z,57.20
2018-07-31T05:58:11.395Z,55.30
2018-07-31T06:03:19.801Z,57.20
2018-07-31T06:05:54.307Z,57.30
2018-07-31T06:08:28.731Z,56.60
2018-07-31T06:11:03.141Z,58.40
2018-07-31T06:13:37.554Z,58.30
2018-07-31T06:16:12.117Z,58.00
2018-07-31T06:18:46.508Z,58.50
2018-07-31T06:21:21.002Z,56.80
2018-07-31T06:23:55.426Z,55.70
2018-07-31T06:26:29.871Z,54.60
2018-07-31T06:29:04.319Z,53.40
2018-07-31T06:31:39.885Z,53.20
2018-07-31T06:34:14.468Z,52.70
2018-07-31T06:36:51.826Z,51.20
2018-07-31T06:39:26.448Z,50.10
2018-07-31T06:42:00.909Z,50.00
2018-07-31T06:44:35.317Z,49.40
2018-07-31T06:49:43.697Z,49.70
2018-07-31T06:52:18.196Z,47.20
2018-07-31T06:54:53.889Z,47.50
2018-07-31T06:57:28.692Z,47.00
2018-07-31T07:00:03.112Z,46.50
2018-07-31T07:02:37.626Z,46.70
2018-07-31T07:05:12.965Z,47.30
2018-07-31T07:07:47.386Z,47.90
2018-07-31T07:10:21.831Z,47.50
2018-07-31T07:12:56.279Z,47.00
2018-07-31T07:15:30.728Z,46.70
2018-07-31T07:18:05.863Z,44.90
2018-07-31T07:20:40.246Z,46.10
2018-07-31T07:25:48.715Z,44.00
2018-07-31T07:28:23.138Z,42.30
2018-07-31T07:30:57.568Z,44.20
2018-07-31T07:33:33.085Z,46.10
2018-07-31T07:36:07.664Z,46.60
2018-07-31T07:38:43.180Z,48.00
2018-07-31T07:41:17.596Z,47.80
2018-07-31T07:43:52.163Z,46.40
2018-07-31T07:46:28.044Z,45.70
2018-07-31T07:49:02.602Z,46.20
2018-07-31T07:51:37.164Z,45.00
2018-07-31T07:56:47.060Z,46.40
2018-07-31T07:59:21.622Z,46.10
2018-07-31T08:01:56.142Z,46.60
2018-07-31T08:04:31.641Z,43.90
2018-07-31T08:07:07.659Z,42.70
2018-07-31T08:09:42.132Z,42.10
2018-07-31T08:12:16.668Z,41.80
2018-07-31T08:14:51.141Z,42.10
2018-07-31T08:17:25.737Z,42.50
2018-07-31T08:20:00.268Z,39.70
2018-07-31T08:22:34.798Z,40.30
2018-07-31T08:25:09.396Z,40.90
2018-07-31T08:27:44.845Z,40.70
2018-07-31T08:30:42.148Z,40.40
2018-07-31T08:33:22.807Z,39.70
2018-07-31T08:35:58.502Z,39.80
2018-07-31T08:38:32.958Z,38.10
2018-07-31T08:41:13.356Z,37.60
2018-07-31T08:46:31.662Z,38.80
2018-07-31T08:49:12.619Z,36.90
2018-07-31T08:54:31.835Z,41.40
2018-07-31T08:57:13.272Z,40.80
2018-07-31T09:00:38.680Z,40.40
2018-07-31T09:03:16.402Z,39.00
2018-07-31T09:05:50.862Z,38.50
2018-07-31T09:08:27.399Z,38.40
2018-07-31T09:11:03.115Z,38.60
2018-07-31T09:13:37.563Z,38.50
2018-07-31T09:16:12.020Z,38.10
2018-07-31T09:18:46.475Z,38.50
2018-07-31T09:21:20.972Z,37.80
2018-07-31T09:24:01.378Z,36.20
2018-07-31T09:26:35.916Z,36.50
2018-07-31T09:29:10.558Z,36.00
2018-07-31T09:31:45.206Z,36.90
2018-07-31T09:34:19.912Z,36.90
2018-07-31T09:36:57.699Z,37.50
2018-07-31T09:39:33.135Z,36.40
2018-07-31T09:42:11.810Z,35.40
2018-07-31T09:44:51.113Z,35.50
2018-07-31T09:47:25.732Z,36.30
2018-07-31T09:50:00.220Z,35.80
2018-07-31T09:55:08.651Z,34.00
2018-07-31T10:00:19.653Z,34.20
2018-07-31T10:02:54.891Z,36.70
2018-07-31T10:05:33.696Z,35.50
2018-07-31T10:08:08.192Z,35.20
2018-07-31T10:10:43.654Z,35.40
2018-07-31T10:13:18.217Z,35.10
2018-07-31T10:15:53.021Z,34.60
2018-07-31T10:18:27.479Z,34.00
2018-07-31T10:21:02.937Z,34.70
2018-07-31T10:23:38.512Z,35.60
2018-07-31T10:28:48.412Z,34.70
2018-07-31T10:31:22.991Z,34.60
2018-07-31T10:33:57.423Z,34.60
2018-07-31T10:39:08.103Z,34.40
2018-07-31T10:44:16.493Z,34.50
2018-07-31T10:46:50.987Z,33.90
2018-07-31T10:49:25.460Z,33.50
2018-07-31T10:51:59.917Z,34.60
2018-07-31T10:54:34.308Z,33.00
2018-07-31T10:59:42.825Z,33.90
2018-07-31T11:02:17.400Z,33.90
2018-07-31T11:04:51.879Z,34.10
2018-07-31T11:07:26.319Z,34.30
2018-07-31T11:10:00.788Z,34.00
2018-07-31T11:12:38.917Z,34.20
2018-07-31T11:17:47.326Z,34.80
2018-07-31T11:20:24.913Z,35.20
2018-07-31T11:23:00.986Z,34.80
2018-07-31T11:25:39.303Z,34.60
2018-07-31T11:28:15.545Z,34.50
2018-07-31T11:30:51.863Z,33.80
2018-07-31T11:33:32.741Z,33.00
2018-07-31T11:36:08.676Z,33.70
2018-07-31T11:38:48.934Z,33.20
2018-07-31T11:41:24.769Z,33.20
2018-07-31T11:44:01.183Z,32.40
2018-07-31T11:46:38.802Z,33.10
2018-07-31T11:52:00.024Z,34.50
2018-07-31T11:54:40.659Z,33.30
2018-07-31T11:57:19.189Z,33.50
2018-07-31T11:59:59.086Z,33.30
2018-07-31T12:02:37.531Z,33.40
2018-07-31T12:05:16.289Z,33.40
2018-07-31T12:11:01.494Z,34.00
2018-07-31T12:17:03.630Z,32.10
2018-07-31T12:19:40.928Z,34.20
2018-07-31T12:22:18.320Z,32.60
2018-07-31T12:24:57.763Z,32.20
2018-07-31T12:30:24.369Z,32.80
2018-07-31T12:33:07.359Z,33.20
2018-07-31T12:38:57.948Z,33.60
2018-07-31T12:44:32.820Z,33.80
2018-07-31T12:47:17.817Z,32.70
2018-07-31T12:49:57.360Z,33.60
2018-07-31T12:52:33.562Z,33.00
2018-07-31T12:55:11.016Z,33.20
2018-07-31T12:57:50.517Z,33.80
2018-07-31T13:00:30.117Z,31.20
2018-07-31T13:03:06.055Z,31.40
2018-07-31T13:05:43.838Z,31.60
2018-07-31T13:08:22.453Z,32.00
2018-07-31T13:13:37.882Z,31.70
2018-07-31T13:16:17.020Z,31.60
2018-07-31T13:19:00.011Z,31.60
2018-07-31T13:21:37.296Z,32.00
2018-07-31T13:24:13.883Z,33.00
2018-07-31T13:26:48.437Z,32.20
2018-07-31T13:29:22.821Z,32.40
2018-07-31T13:34:37.656Z,32.50
2018-07-31T13:39:52.134Z,32.20
2018-07-31T13:42:26.775Z,32.00
2018-07-31T13:45:02.399Z,32.30
2018-07-31T13:50:17.627Z,32.20
2018-07-31T13:52:53.623Z,31.60
2018-07-31T13:55:29.129Z,32.30
2018-07-31T13:58:04.170Z,32.10
2018-07-31T14:00:38.589Z,31.40
2018-07-31T14:03:14.181Z,32.20
2018-07-31T14:05:49.967Z,32.00
2018-07-31T14:08:31.090Z,31.40
2018-07-31T14:11:05.668Z,31.80
2018-07-31T14:13:43.828Z,32.40
2018-07-31T14:16:18.365Z,32.00
2018-07-31T14:18:53.911Z,32.60
2018-07-31T14:21:28.292Z,32.50
2018-07-31T14:24:02.754Z,32.10
2018-07-31T14:26:37.181Z,31.90
2018-07-31T14:29:12.251Z,31.40
2018-07-31T14:31:49.511Z,31.60
2018-07-31T14:34:25.005Z,32.40
2018-07-31T14:37:05.917Z,30.60
2018-07-31T14:39:59.823Z,31.40
2018-07-31T14:42:34.398Z,31.20
2018-07-31T14:45:21.738Z,31.30
2018-07-31T14:47:56.169Z,31.30
2018-07-31T14:50:36.753Z,31.60
2018-07-31T14:55:45.895Z,31.70
2018-07-31T14:58:20.307Z,31.80
2018-07-31T15:00:54.760Z,32.00
2018-07-31T15:03:29.233Z,31.40
2018-07-31T15:06:03.768Z,31.70
2018-07-31T15:08:42.272Z,31.80
2018-07-31T15:11:21.593Z,32.00
2018-07-31T15:16:36.972Z,32.60
2018-07-31T15:19:19.112Z,33.10
2018-07-31T15:21:53.586Z,33.50
2018-07-31T15:24:30.653Z,33.30
2018-07-31T15:27:05.096Z,33.40
2018-07-31T15:29:39.623Z,33.00
2018-07-31T15:32:14.715Z,33.20
2018-07-31T15:34:50.277Z,33.20
2018-07-31T15:37:24.704Z,33.70
2018-07-31T15:39:59.204Z,33.90
2018-07-31T15:42:33.635Z,34.60
2018-07-31T15:47:42.142Z,34.80
2018-07-31T15:50:16.750Z,34.60
2018-07-31T15:52:52.580Z,34.50
2018-07-31T15:55:27.097Z,34.30
2018-07-31T15:58:05.619Z,34.60
2018-07-31T16:00:40.094Z,34.90
2018-07-31T16:05:50.836Z,35.00
2018-07-31T16:08:25.412Z,36.50
2018-07-31T16:10:59.848Z,36.70
2018-07-31T16:13:35.376Z,37.10
2018-07-31T16:16:09.768Z,38.20
2018-07-31T16:18:44.767Z,39.50
2018-07-31T16:21:19.240Z,39.60
2018-07-31T16:23:54.615Z,42.00
2018-07-31T16:26:29.015Z,43.50
2018-07-31T16:29:03.516Z,48.10
2018-07-31T16:34:11.864Z,50.00
2018-07-31T16:36:46.283Z,51.70
2018-07-31T16:39:20.753Z,51.50
2018-07-31T16:41:55.203Z,52.10
2018-07-31T16:44:29.771Z,52.80
2018-07-31T16:47:04.204Z,53.60
2018-07-31T16:49:38.737Z,55.00
2018-07-31T16:52:13.467Z,55.70
2018-07-31T16:54:48.012Z,55.70
2018-07-31T16:59:56.452Z,56.60
2018-07-31T17:02:30.916Z,57.50
2018-07-31T17:05:06.512Z,58.00
2018-07-31T17:10:15.216Z,57.40
2018-07-31T17:12:49.658Z,57.60
2018-07-31T17:15:24.135Z,53.90
2018-07-31T17:17:58.572Z,54.30
2018-07-31T17:20:33.269Z,53.90
2018-07-31T17:23:07.674Z,53.80
2018-07-31T17:25:43.148Z,53.20
2018-07-31T17:28:17.576Z,52.80
2018-07-31T17:30:53.032Z,52.50
2018-07-31T17:33:27.695Z,52.50
2018-07-31T17:36:02.401Z,52.30
2018-07-31T17:38:37.871Z,52.10
2018-07-31T17:41:12.376Z,52.20
2018-07-31T17:43:46.803Z,52.10
2018-07-31T17:46:21.332Z,51.70
2018-07-31T17:48:55.745Z,51.60
2018-07-31T17:51:30.182Z,50.20
2018-07-31T17:54:04.641Z,49.30
2018-07-31T17:56:39.169Z,49.50
2018-07-31T18:01:47.641Z,49.00
2018-07-31T18:04:23.039Z,48.60
2018-07-31T18:09:31.409Z,48.50
2018-07-31T18:12:05.872Z,48.00
2018-07-31T18:14:40.333Z,48.60
2018-07-31T18:17:14.820Z,48.90
2018-07-31T18:22:23.240Z,49.80
2018-07-31T18:24:58.647Z,50.20
2018-07-31T18:27:33.071Z,50.80
2018-07-31T18:30:07.988Z,52.60
2018-07-31T18:32:43.512Z,55.30
2018-07-31T18:35:18.972Z,56.10
2018-07-31T18:37:54.459Z,55.00
2018-07-31T18:40:28.928Z,56.70
2018-07-31T18:43:04.391Z,55.40
2018-07-31T18:45:38.802Z,55.70
2018-07-31T18:48:13.239Z,57.00
2018-07-31T18:50:47.684Z,58.10
2018-07-31T18:53:22.163Z,58.60
2018-07-31T18:55:57.637Z,59.00
2018-07-31T18:58:32.101Z,60.00
2018-07-31T19:01:06.564Z,60.50
2018-07-31T19:06:15.083Z,63.20
2018-07-31T19:08:49.598Z,64.70
2018-07-31T19:11:24.023Z,65.30
2018-07-31T19:13:59.519Z,65.30
2018-07-31T19:16:33.964Z,66.50
2018-07-31T19:19:08.427Z,65.50
2018-07-31T19:21:43.185Z,66.60
2018-07-31T19:24:17.680Z,67.10
2018-07-31T19:26:52.089Z,66.80
2018-07-31T19:29:32.051Z,66.60
2018-07-31T19:32:06.849Z,67.70
2018-07-31T19:34:43.384Z,69.10
2018-07-31T19:40:06.407Z,70.50
2018-07-31T19:42:50.640Z,71.00
2018-07-31T19:45:26.647Z,72.70
2018-07-31T19:48:01.071Z,73.50
2018-07-31T19:53:11.083Z,74.60
2018-07-31T19:55:47.623Z,75.80
2018-07-31T19:58:22.428Z,77.60
2018-07-31T20:00:58.312Z,78.70
2018-07-31T20:03:33.099Z,78.80
2018-07-31T20:06:08.763Z,80.10
2018-07-31T20:11:17.736Z,78.10
2018-07-31T20:13:52.216Z,80.90
2018-07-31T20:16:26.643Z,81.70
2018-07-31T20:21:35.647Z,81.30
2018-07-31T20:24:10.392Z,81.90
2018-07-31T20:26:46.082Z,82.80
2018-07-31T20:29:20.852Z,82.30
2018-07-31T20:31:55.534Z,81.30
2018-07-31T20:34:32.537Z,81.30
2018-07-31T20:37:07.464Z,81.80
2018-07-31T20:39:42.379Z,81.20
2018-07-31T20:42:18.121Z,81.10
2018-07-31T20:44:53.920Z,81.60
2018-07-31T20:47:28.624Z,82.10
2018-07-31T20:50:03.404Z,82.50
2018-07-31T20:55:12.168Z,83.40
2018-07-31T20:57:46.928Z,83.80
2018-07-31T21:00:21.643Z,84.60
2018-07-31T21:02:57.173Z,85.60
2018-07-31T21:05:32.124Z,86.10
2018-07-31T21:08:07.850Z,86.70
2018-07-31T21:10:42.532Z,87.30
2018-07-31T21:13:17.280Z,88.60
2018-07-31T21:18:27.527Z,91.10
2018-07-31T21:21:03.215Z,92.00
2018-07-31T21:23:38.968Z,93.10
2018-07-31T21:26:13.882Z,94.10
2018-07-31T21:31:24.268Z,96.60
2018-07-31T21:33:59.020Z,97.70
2018-07-31T21:36:33.707Z,98.80
2018-07-31T21:41:44.011Z,99.90
2018-07-31T21:44:18.830Z,99.90
2018-07-31T21:46:54.590Z,99.90
2018-07-31T21:49:29.339Z,99.90
2018-07-31T21:52:04.131Z,99.90
2018-07-31T21:54:39.152Z,99.90
2018-07-31T21:57:13.869Z,99.90
2018-07-31T21:59:48.643Z,99.90
2018-07-31T22:02:28.720Z,99.90
2018-07-31T22:12:47.579Z,99.90
2018-07-31T22:15:27.507Z,99.90
2018-07-31T22:18:02.883Z,99.90
2018-07-31T22:20:42.325Z,99.90
2018-07-31T22:23:25.577Z,99.90
2018-07-31T22:26:11.310Z,99.90
2018-07-31T22:28:47.771Z,99.90
2018-07-31T22:31:22.763Z,99.90
2018-07-31T22:33:58.515Z,99.90
2018-07-31T22:36:34.287Z,99.90
2018-07-31T22:39:10.554Z,99.90
2018-07-31T22:41:46.289Z,99.90
2018-07-31T22:44:25.723Z,99.90
2018-07-31T22:47:01.311Z,99.90
2018-07-31T22:49:36.035Z,99.90
2018-07-31T22:55:29.206Z,99.90
2018-07-31T22:58:06.124Z,99.90
2018-07-31T23:09:29.426Z,99.90
2018-07-31T23:12:26.948Z,99.90
2018-07-31T23:15:12.403Z,99.90
2018-07-31T23:20:25.656Z,99.90
2018-07-31T23:23:22.570Z,99.90
2018-07-31T23:28:45.121Z,99.90
2018-07-31T23:31:23.970Z,99.90
2018-07-31T23:34:01.328Z,99.90
2018-07-31T23:36:36.400Z,99.90
2018-07-31T23:39:14.271Z,99.90
2018-07-31T23:44:31.649Z,99.90
2018-07-31T23:47:09.202Z,99.90
2018-07-31T23:49:46.083Z,99.90
2018-07-31T23:54:56.890Z,99.90
2018-07-31T23:57:31.599Z,99.90
